Time;durP1;ratioP1;P1;durP2;ratioP2;P2;SDS_P1;SDS_P2;PMS_P1;PMS_P2;Temp;Humidity;BMP_temperature;BMP_pressure;BME280_temperature;BME280_humidity;BME280_pressure;Samples;Min_cycle;Max_cycle;Signal;HPM_P1;HPM_P2
2021/12/11 00:01:10;;;;;;;;;;;;;;;;;;5131595;28;797;-60
2021/12/11 00:03:39;;;;;;;;;;;;;;;;;;5131176;28;754;-60
2021/12/11 00:06:13;;;;;;;;;;;;;;;;;;5132030;28;867;-60
2021/12/11 00:08:40;;;;;;;;;;;;;;;;;;5112764;28;1707;-60
2021/12/11 00:11:08;;;;;;;;;;;;;;;;;;5131390;28;2077;-60
2021/12/11 00:13:36;;;;;;;;;;;;;;;;;;5134364;27;907;-60
2021/12/11 00:16:02;;;;;;;;;;;;;;;;;;5135461;27;1989;-60
2021/12/11 00:18:28;;;;;;;;;;;;;;;;;;5135294;27;833;-60
2021/12/11 00:20:56;;;;;;;;;;;;;;;;;;5135948;27;871;-60
2021/12/11 00:23:28;;;;;;;;;;;;;;;;;;5135198;27;875;-60
2021/12/11 00:25:53;;;;;;;;;;;;;;;;;;5143547;27;1210;-60
2021/12/11 00:28:19;;;;;;;;;;;;;;;;;;5149785;27;1185;-61
2021/12/11 00:30:46;;;;;;;;;;;;;;;;;;5155530;27;1201;-60
2021/12/11 00:33:14;;;;;;;;;;;;;;;;;;5155885;27;966;-60
2021/12/11 00:35:40;;;;;;;;;;;;;;;;;;5136543;27;1885;-60
2021/12/11 00:38:10;;;;;;;;;;;;;;;;;;5156523;27;832;-60
2021/12/11 00:40:36;;;;;;;;;;;;;;;;;;5155740;27;800;-60
2021/12/11 00:43:04;;;;;;;;;;;;;;;;;;5156369;27;852;-60
2021/12/11 00:45:35;;;;;;;;;;;;;;;;;;5155759;27;1144;-61
2021/12/11 00:48:08;;;;;;;;;;;;;;;;;;5137097;27;732;-61
2021/12/11 00:50:39;;;;;;;;;;;;;;;;;;5156032;27;935;-61
2021/12/11 00:53:04;;;;;;;;;;;;;;;;;;5156241;27;974;-61
2021/12/11 00:55:34;;;;;;;;;;;;;;;;;;5156157;27;1914;-61
2021/12/11 00:58:02;;;;;;;;;;;;;;;;;;5156309;27;954;-61
2021/12/11 01:00:27;;;;;;;;;;;;;;;;;;5155670;27;897;-61
2021/12/11 01:02:53;;;;;;;;;;;;;;;;;;5137539;27;1491;-61
2021/12/11 01:05:19;;;;;;;;;;;;;;;;;;5155558;27;899;-61
2021/12/11 01:07:45;;;;;;;;;;;;;;;;;;5155444;27;939;-61
2021/12/11 01:10:17;;;;;;;;;;;;;;;;;;5137162;27;903;-61
2021/12/11 01:12:49;;;;;;;;;;;;;;;;;;5137174;27;847;-61
2021/12/11 01:15:25;;;;;;;;;;;;;;;;;;5155771;27;1897;-61
2021/12/11 01:18:03;;;;;;;;;;;;;;;;;;5154083;27;874;-60
2021/12/11 01:20:36;;;;;;;;;;;;;;;;;;5155406;27;902;-60
2021/12/11 01:23:05;;;;;;;;;;;;;;;;;;5155754;27;990;-60
2021/12/11 01:25:30;;;;;;;;;;;;;;;;;;5154359;27;895;-60
2021/12/11 01:28:00;;;;;;;;;;;;;;;;;;5155365;27;899;-60
2021/12/11 01:30:37;;;;;;;;;;;;;;;;;;5154298;27;888;-61
2021/12/11 01:33:03;;;;;;;;;;;;;;;;;;5154767;27;880;-61
2021/12/11 01:35:28;;;;;;;;;;;;;;;;;;5153904;27;1965;-61
2021/12/11 01:38:03;;;;;;;;;;;;;;;;;;5155257;27;808;-61
2021/12/11 01:40:31;;;;;;;;;;;;;;;;;;5154538;27;903;-61
2021/12/11 01:42:57;;;;;;;;;;;;;;;;;;5155142;27;816;-61
2021/12/11 01:45:22;;;;;;;;;;;;;;;;;;5154291;27;938;-61
2021/12/11 01:47:48;;;;;;;;;;;;;;;;;;5154441;27;987;-61
2021/12/11 01:50:13;;;;;;;;;;;;;;;;;;5118900;27;1365;-61
2021/12/11 01:52:41;;;;;;;;;;;;;;;;;;5154020;27;987;-61
2021/12/11 01:55:13;;;;;;;;;;;;;;;;;;5154429;27;1909;-61
2021/12/11 01:57:38;;;;;;;;;;;;;;;;;;5153953;27;844;-60
2021/12/11 02:00:13;;;;;;;;;;;;;;;;;;5154075;27;884;-61
2021/12/11 02:02:41;;;;;;;;;;;;;;;;;;5153907;27;895;-60
2021/12/11 02:05:07;;;;;;;;;;;;;;;;;;5135974;27;883;-61
2021/12/11 02:07:38;;;;;;;;;;;;;;;;;;5153756;27;1668;-60
2021/12/11 02:10:10;;;;;;;;;;;;;;;;;;5154915;27;789;-61
2021/12/11 02:12:40;;;;;;;;;;;;;;;;;;5153816;27;917;-61
2021/12/11 02:15:07;;;;;;;;;;;;;;;;;;5154327;27;1947;-61
2021/12/11 02:17:40;;;;;;;;;;;;;;;;;;5153997;27;895;-61
2021/12/11 02:20:06;;;;;;;;;;;;;;;;;;5153915;27;902;-61
2021/12/11 02:22:37;;;;;;;;;;;;;;;;;;5153370;27;926;-61
2021/12/11 02:25:07;;;;;;;;;;;;;;;;;;5153388;27;1182;-61
2021/12/11 02:27:34;;;;;;;;;;;;;;;;;;5153303;27;761;-61
2021/12/11 02:30:20;;;;;;;;;;;;;;;;;;5153627;27;981;-61
2021/12/11 02:32:49;;;;;;;;;;;;;;;;;;5153114;27;842;-61
2021/12/11 02:35:18;;;;;;;;;;;;;;;;;;5152911;27;1976;-61
2021/12/11 02:37:49;;;;;;;;;;;;;;;;;;5152395;27;1198;-61
2021/12/11 02:40:25;;;;;;;;;;;;;;;;;;5153329;27;903;-61
2021/12/11 02:42:59;;;;;;;;;;;;;;;;;;5153598;27;1209;-61
2021/12/11 02:45:34;;;;;;;;;;;;;;;;;;5153749;27;903;-61
2021/12/11 02:48:05;;;;;;;;;;;;;;;;;;5135316;27;966;-61
2021/12/11 02:50:30;;;;;;;;;;;;;;;;;;5153065;27;1224;-61
2021/12/11 02:53:03;;;;;;;;;;;;;;;;;;5154038;27;876;-61
2021/12/11 02:55:28;;;;;;;;;;;;;;;;;;5153311;27;1914;-60
2021/12/11 02:57:55;;;;;;;;;;;;;;;;;;5153286;27;843;-61
2021/12/11 03:00:24;;;;;;;;;;;;;;;;;;5153463;27;915;-61
2021/12/11 03:02:59;;;;;;;;;;;;;;;;;;5153518;27;821;-61
2021/12/11 03:05:34;;;;;;;;;;;;;;;;;;5153228;27;899;-60
2021/12/11 03:08:01;;;;;;;;;;;;;;;;;;5153465;27;871;-61
2021/12/11 03:10:26;;;;;;;;;;;;;;;;;;5117395;27;840;-61
2021/12/11 03:12:54;;;;;;;;;;;;;;;;;;5153241;27;1215;-60
2021/12/11 03:15:19;;;;;;;;;;;;;;;;;;5135148;27;1968;-61
2021/12/11 03:17:45;;;;;;;;;;;;;;;;;;5153533;27;781;-61
2021/12/11 03:20:12;;;;;;;;;;;;;;;;;;5152768;27;904;-61
2021/12/11 03:22:38;;;;;;;;;;;;;;;;;;5152055;27;815;-61
2021/12/11 03:25:06;;;;;;;;;;;;;;;;;;5134051;27;863;-60
2021/12/11 03:27:31;;;;;;;;;;;;;;;;;;5152222;27;947;-60
2021/12/11 03:29:57;;;;;;;;;;;;;;;;;;5153045;27;829;-61
2021/12/11 03:32:22;;;;;;;;;;;;;;;;;;5152926;27;979;-60
2021/12/11 03:34:50;;;;;;;;;;;;;;;;;;5152806;27;911;-61
2021/12/11 03:37:16;;;;;;;;;;;;;;;;;;5133993;27;1929;-61
2021/12/11 03:39:44;;;;;;;;;;;;;;;;;;5151923;27;986;-61
2021/12/11 03:42:15;;;;;;;;;;;;;;;;;;5152786;27;848;-61
2021/12/11 03:44:42;;;;;;;;;;;;;;;;;;5152374;27;879;-61
2021/12/11 03:47:11;;;;;;;;;;;;;;;;;;5152197;27;973;-61
2021/12/11 03:49:36;;;;;;;;;;;;;;;;;;5152218;27;982;-61
2021/12/11 03:52:04;;;;;;;;;;;;;;;;;;5152715;27;947;-61
2021/12/11 03:54:31;;;;;;;;;;;;;;;;;;5152778;27;813;-61
2021/12/11 03:56:57;;;;;;;;;;;;;;;;;;5152632;27;1976;-61
2021/12/11 03:59:23;;;;;;;;;;;;;;;;;;5152856;27;784;-61
2021/12/11 04:01:51;;;;;;;;;;;;;;;;;;5152414;27;848;-61
2021/12/11 04:04:18;;;;;;;;;;;;;;;;;;5152712;27;1467;-60
2021/12/11 04:06:45;;;;;;;;;;;;;;;;;;5152285;27;919;-61
2021/12/11 04:09:13;;;;;;;;;;;;;;;;;;5152864;27;910;-61
2021/12/11 04:11:38;;;;;;;;;;;;;;;;;;5152305;27;777;-60
2021/12/11 04:14:05;;;;;;;;;;;;;;;;;;5152205;27;1033;-61
2021/12/11 04:16:31;;;;;;;;;;;;;;;;;;5151839;27;1901;-61
2021/12/11 04:18:57;;;;;;;;;;;;;;;;;;5152321;27;808;-60
2021/12/11 04:21:22;;;;;;;;;;;;;;;;;;5152346;27;818;-60
2021/12/11 04:23:48;;;;;;;;;;;;;;;;;;5152535;27;801;-61
2021/12/11 04:26:14;;;;;;;;;;;;;;;;;;5133747;27;1837;-60
2021/12/11 04:28:40;;;;;;;;;;;;;;;;;;5151921;27;875;-60
2021/12/11 04:31:08;;;;;;;;;;;;;;;;;;5152513;27;904;-60
2021/12/11 04:33:37;;;;;;;;;;;;;;;;;;5152254;27;923;-60
2021/12/11 04:36:03;;;;;;;;;;;;;;;;;;5152165;27;1967;-61
2021/12/11 04:38:29;;;;;;;;;;;;;;;;;;5152562;27;828;-60
2021/12/11 04:40:57;;;;;;;;;;;;;;;;;;5152137;27;804;-61
2021/12/11 04:43:24;;;;;;;;;;;;;;;;;;5153230;27;909;-61
2021/12/11 04:45:53;;;;;;;;;;;;;;;;;;5152820;27;959;-61
2021/12/11 04:48:31;;;;;;;;;;;;;;;;;;5153180;27;816;-61
2021/12/11 04:51:08;;;;;;;;;;;;;;;;;;5152617;27;875;-61
2021/12/11 04:53:49;;;;;;;;;;;;;;;;;;5152449;27;998;-61
2021/12/11 05:04:33;;;;;;;;;;;;;;;;;;5155910;27;898;-60
2021/12/11 05:07:43;;;;;;;;;;;;;;;;;;5154668;27;1380;-60
2021/12/11 05:14:56;;;;;;;;;;;;;;;;;;5137840;27;1185;-61
2021/12/11 05:17:22;;;;;;;;;;;;;;;;;;5156277;27;1906;-61
2021/12/11 05:19:47;;;;;;;;;;;;;;;;;;5155648;27;965;-60
2021/12/11 05:22:14;;;;;;;;;;;;;;;;;;5155046;27;993;-61
2021/12/11 05:24:41;;;;;;;;;;;;;;;;;;5155376;27;835;-60
2021/12/11 05:27:07;;;;;;;;;;;;;;;;;;5136497;27;919;-60
2021/12/11 05:29:33;;;;;;;;;;;;;;;;;;5154684;27;863;-61
2021/12/11 05:31:58;;;;;;;;;;;;;;;;;;5154850;27;895;-60
2021/12/11 05:34:23;;;;;;;;;;;;;;;;;;5154897;27;1050;-61
2021/12/11 05:36:49;;;;;;;;;;;;;;;;;;5154620;27;1964;-59
2021/12/11 05:39:17;;;;;;;;;;;;;;;;;;5155118;27;895;-59
2021/12/11 05:41:44;;;;;;;;;;;;;;;;;;5154517;27;843;-60
2021/12/11 05:44:10;;;;;;;;;;;;;;;;;;5155088;27;844;-60
2021/12/11 05:46:35;;;;;;;;;;;;;;;;;;5154465;27;895;-60
2021/12/11 05:49:01;;;;;;;;;;;;;;;;;;5154303;27;880;-59
2021/12/11 05:51:26;;;;;;;;;;;;;;;;;;5154832;27;832;-59
2021/12/11 05:53:57;;;;;;;;;;;;;;;;;;5153892;27;788;-59
2021/12/11 05:56:23;;;;;;;;;;;;;;;;;;5154648;27;1917;-60
2021/12/11 06:01:21;;;;;;;;;;;;;;;;;;5154696;27;879;-59
2021/12/11 06:03:47;;;;;;;;;;;;;;;;;;5154323;27;895;-59
2021/12/11 06:06:12;;;;;;;;;;;;;;;;;;5154555;27;768;-59
2021/12/11 06:08:38;;;;;;;;;;;;;;;;;;5154185;27;875;-60
2021/12/11 06:11:04;;;;;;;;;;;;;;;;;;5154022;27;902;-59
2021/12/11 06:13:29;;;;;;;;;;;;;;;;;;5153617;27;896;-59
2021/12/11 06:15:55;;;;;;;;;;;;;;;;;;5153740;27;1954;-59
2021/12/11 06:18:21;;;;;;;;;;;;;;;;;;5154307;27;895;-59
2021/12/11 06:20:47;;;;;;;;;;;;;;;;;;5150143;27;1205;-59
2021/12/11 06:23:13;;;;;;;;;;;;;;;;;;5132789;27;1130;-60
2021/12/11 06:25:39;;;;;;;;;;;;;;;;;;5113860;27;1226;-59
2021/12/11 06:28:06;;;;;;;;;;;;;;;;;;5132038;27;1119;-59
2021/12/11 06:30:31;;;;;;;;;;;;;;;;;;5144540;27;1154;-60
2021/12/11 06:32:57;;;;;;;;;;;;;;;;;;5152779;27;1225;-59
2021/12/11 06:35:32;;;;;;;;;;;;;;;;;;5153448;27;1959;-60
2021/12/11 06:37:57;;;;;;;;;;;;;;;;;;5153357;27;1064;-59
2021/12/11 06:40:24;;;;;;;;;;;;;;;;;;5153841;27;970;-59
2021/12/11 06:42:51;;;;;;;;;;;;;;;;;;5153206;27;911;-60
2021/12/11 06:45:16;;;;;;;;;;;;;;;;;;5153917;27;831;-59
2021/12/11 06:47:41;;;;;;;;;;;;;;;;;;5153542;27;879;-59
2021/12/11 06:50:08;;;;;;;;;;;;;;;;;;5153473;27;870;-59
2021/12/11 06:52:34;;;;;;;;;;;;;;;;;;5153290;27;910;-60
2021/12/11 06:54:59;;;;;;;;;;;;;;;;;;5153282;27;864;-59
2021/12/11 06:57:24;;;;;;;;;;;;;;;;;;5153159;27;1890;-60
2021/12/11 06:59:49;;;;;;;;;;;;;;;;;;5152666;27;985;-60
2021/12/11 07:02:16;;;;;;;;;;;;;;;;;;5154052;27;832;-60
2021/12/11 07:04:42;;;;;;;;;;;;;;;;;;5153184;27;789;-60
2021/12/11 07:07:07;;;;;;;;;;;;;;;;;;5151245;27;1581;-60
2021/12/11 07:09:33;;;;;;;;;;;;;;;;;;5132316;27;848;-60
2021/12/11 07:11:59;;;;;;;;;;;;;;;;;;5132639;27;876;-59
2021/12/11 07:14:25;;;;;;;;;;;;;;;;;;5132591;27;832;-59
2021/12/11 07:16:51;;;;;;;;;;;;;;;;;;5113733;27;1964;-59
2021/12/11 07:19:17;;;;;;;;;;;;;;;;;;5132331;27;821;-60
2021/12/11 07:21:43;;;;;;;;;;;;;;;;;;5131695;27;1034;-60
2021/12/11 07:24:10;;;;;;;;;;;;;;;;;;5132018;27;868;-60
2021/12/11 07:26:36;;;;;;;;;;;;;;;;;;5132044;27;931;-60
2021/12/11 07:29:09;;;;;;;;;;;;;;;;;;5132393;27;810;-60
2021/12/11 07:31:34;;;;;;;;;;;;;;;;;;5132072;27;923;-60
2021/12/11 07:34:00;;;;;;;;;;;;;;;;;;5131812;27;993;-60
2021/12/11 07:36:27;;;;;;;;;;;;;;;;;;5131920;27;1952;-60
2021/12/11 07:38:53;;;;;;;;;;;;;;;;;;5131593;27;826;-60
2021/12/11 07:41:19;;;;;;;;;;;;;;;;;;5132214;27;836;-60
2021/12/11 07:43:45;;;;;;;;;;;;;;;;;;5131744;27;1002;-60
2021/12/11 07:46:13;;;;;;;;;;;;;;;;;;5131778;27;864;-60
2021/12/11 07:48:38;;;;;;;;;;;;;;;;;;5131588;28;1003;-60
2021/12/11 07:51:04;;;;;;;;;;;;;;;;;;5131789;28;1007;-60
2021/12/11 07:53:30;;;;;;;;;;;;;;;;;;5131910;28;922;-60
2021/12/11 07:55:55;;;;;;;;;;;;;;;;;;5131829;28;1905;-60
2021/12/11 07:58:21;;;;;;;;;;;;;;;;;;5132028;28;879;-60
2021/12/11 08:00:47;;;;;;;;;;;;;;;;;;5131735;28;899;-60
2021/12/11 08:03:13;;;;;;;;;;;;;;;;;;5131776;28;946;-60
2021/12/11 08:05:39;;;;;;;;;;;;;;;;;;5131776;28;962;-60
2021/12/11 08:08:06;;;;;;;;;;;;;;;;;;5131443;28;931;-60
2021/12/11 08:10:33;;;;;;;;;;;;;;;;;;5131772;28;832;-61
2021/12/11 08:12:59;;;;;;;;;;;;;;;;;;5131842;28;903;-61
2021/12/11 08:15:24;;;;;;;;;;;;;;;;;;5131649;28;1902;-61
2021/12/11 08:17:54;;;;;;;;;;;;;;;;;;5131344;28;840;-61
2021/12/11 08:20:21;;;;;;;;;;;;;;;;;;5131476;28;929;-61
2021/12/11 08:22:46;;;;;;;;;;;;;;;;;;5131503;28;840;-61
2021/12/11 08:25:12;;;;;;;;;;;;;;;;;;5131660;28;855;-61
2021/12/11 08:27:37;;;;;;;;;;;;;;;;;;5113258;28;832;-61
2021/12/11 08:30:04;;;;;;;;;;;;;;;;;;5131159;28;809;-61
2021/12/11 08:32:29;;;;;;;;;;;;;;;;;;5131828;28;1077;-60
2021/12/11 08:34:54;;;;;;;;;;;;;;;;;;5133448;27;936;-60
2021/12/11 08:37:21;;;;;;;;;;;;;;;;;;5117187;27;1968;-59
2021/12/11 08:39:47;;;;;;;;;;;;;;;;;;5135844;27;1775;-59
2021/12/11 08:42:15;;;;;;;;;;;;;;;;;;5135683;27;855;-60
2021/12/11 08:44:49;;;;;;;;;;;;;;;;;;5135690;27;847;-60
2021/12/11 08:47:15;;;;;;;;;;;;;;;;;;5135605;27;946;-60
2021/12/11 08:49:41;;;;;;;;;;;;;;;;;;5135355;27;1060;-60
2021/12/11 08:52:09;;;;;;;;;;;;;;;;;;5135155;27;1174;-60
2021/12/11 08:54:35;;;;;;;;;;;;;;;;;;5116753;27;828;-59
2021/12/11 08:57:04;;;;;;;;;;;;;;;;;;5135344;27;1910;-60
2021/12/11 08:59:30;;;;;;;;;;;;;;;;;;5135431;27;868;-60
2021/12/11 09:02:09;;;;;;;;;;;;;;;;;;5134865;27;1225;-60
2021/12/11 09:04:34;;;;;;;;;;;;;;;;;;5134683;27;911;-60
2021/12/11 09:07:08;;;;;;;;;;;;;;;;;;5135200;27;835;-59
2021/12/11 09:09:36;;;;;;;;;;;;;;;;;;5134937;27;867;-60
2021/12/11 09:12:17;;;;;;;;;;;;;;;;;;5134691;27;841;-59
2021/12/11 09:14:48;;;;;;;;;;;;;;;;;;5134333;27;910;-60
2021/12/11 09:17:33;;;;;;;;;;;;;;;;;;5134653;27;1910;-60
2021/12/11 09:20:21;;;;;;;;;;;;;;;;;;5133972;27;1870;-60
2021/12/11 09:22:49;;;;;;;;;;;;;;;;;;5134344;27;836;-60
2021/12/11 09:25:23;;;;;;;;;;;;;;;;;;5135030;27;893;-60
2021/12/11 09:27:48;;;;;;;;;;;;;;;;;;5134161;27;824;-60
2021/12/11 09:30:20;;;;;;;;;;;;;;;;;;5134040;27;987;-60
2021/12/11 09:32:53;;;;;;;;;;;;;;;;;;5134209;27;915;-60
2021/12/11 09:35:23;;;;;;;;;;;;;;;;;;5133922;27;1913;-60
2021/12/11 09:37:52;;;;;;;;;;;;;;;;;;5134121;27;845;-60
2021/12/11 09:40:35;;;;;;;;;;;;;;;;;;5134244;27;848;-59
2021/12/11 09:43:01;;;;;;;;;;;;;;;;;;5133734;27;911;-60
2021/12/11 09:45:30;;;;;;;;;;;;;;;;;;5133461;27;903;-60
2021/12/11 09:47:59;;;;;;;;;;;;;;;;;;5133733;27;878;-60
2021/12/11 09:50:29;;;;;;;;;;;;;;;;;;5115475;27;1836;-60
2021/12/11 09:52:56;;;;;;;;;;;;;;;;;;5133494;27;831;-60
2021/12/11 09:55:23;;;;;;;;;;;;;;;;;;5133557;27;1972;-60
2021/12/11 09:57:54;;;;;;;;;;;;;;;;;;5133438;27;848;-60
2021/12/11 10:00:19;;;;;;;;;;;;;;;;;;5133411;27;835;-59
2021/12/11 10:02:44;;;;;;;;;;;;;;;;;;5133654;27;785;-59
2021/12/11 10:05:37;;;;;;;;;;;;;;;;;;5133998;27;878;-59
2021/12/11 10:08:32;;;;;;;;;;;;;;;;;;5133692;27;895;-59
2021/12/11 10:11:11;;;;;;;;;;;;;;;;;;5133980;27;812;-58
2021/12/11 10:13:56;;;;;;;;;;;;;;;;;;5133685;27;847;-58
2021/12/11 10:16:24;;;;;;;;;;;;;;;;;;5133561;27;1910;-58
2021/12/11 10:18:50;;;;;;;;;;;;;;;;;;5133490;27;962;-58
2021/12/11 10:21:20;;;;;;;;;;;;;;;;;;5133596;27;930;-59
2021/12/11 10:23:48;;;;;;;;;;;;;;;;;;5133829;27;943;-59
2021/12/11 10:26:16;;;;;;;;;;;;;;;;;;5133293;27;875;-59
2021/12/11 10:28:43;;;;;;;;;;;;;;;;;;5133508;27;816;-59
2021/12/11 10:31:11;;;;;;;;;;;;;;;;;;5132616;27;876;-60
2021/12/11 10:33:37;;;;;;;;;;;;;;;;;;5132979;27;879;-59
2021/12/11 10:36:05;;;;;;;;;;;;;;;;;;5132724;27;1874;-59
2021/12/11 10:38:31;;;;;;;;;;;;;;;;;;5133168;27;844;-59
2021/12/11 10:40:58;;;;;;;;;;;;;;;;;;5114361;27;920;-59
2021/12/11 10:43:29;;;;;;;;;;;;;;;;;;5132610;27;1099;-59
2021/12/11 10:45:55;;;;;;;;;;;;;;;;;;5114577;27;895;-59
2021/12/11 10:48:26;;;;;;;;;;;;;;;;;;5132819;27;906;-58
2021/12/11 10:50:57;;;;;;;;;;;;;;;;;;5132308;27;824;-59
2021/12/11 10:53:24;;;;;;;;;;;;;;;;;;5132415;27;887;-59
2021/12/11 10:55:54;;;;;;;;;;;;;;;;;;5132075;27;1897;-60
2021/12/11 10:58:22;;;;;;;;;;;;;;;;;;5131650;27;840;-59
2021/12/11 11:00:47;;;;;;;;;;;;;;;;;;5132317;27;911;-59
2021/12/11 11:03:14;;;;;;;;;;;;;;;;;;5132153;27;1209;-59
2021/12/11 11:05:39;;;;;;;;;;;;;;;;;;5132079;27;828;-60
2021/12/11 11:08:09;;;;;;;;;;;;;;;;;;5132586;27;856;-60
2021/12/11 11:10:37;;;;;;;;;;;;;;;;;;5132171;27;935;-60
2021/12/11 11:13:04;;;;;;;;;;;;;;;;;;5113673;27;1143;-60
2021/12/11 11:15:30;;;;;;;;;;;;;;;;;;5131873;27;1893;-60
2021/12/11 11:17:55;;;;;;;;;;;;;;;;;;5132462;27;872;-60
2021/12/11 11:20:24;;;;;;;;;;;;;;;;;;5131665;27;797;-60
2021/12/11 11:22:49;;;;;;;;;;;;;;;;;;5132077;27;1018;-60
2021/12/11 11:25:25;;;;;;;;;;;;;;;;;;5131964;27;912;-59
2021/12/11 11:27:54;;;;;;;;;;;;;;;;;;5132098;27;887;-60
2021/12/11 11:30:20;;;;;;;;;;;;;;;;;;5131781;27;836;-59
2021/12/11 11:32:46;;;;;;;;;;;;;;;;;;5132429;27;1073;-60
2021/12/11 11:35:16;;;;;;;;;;;;;;;;;;5132229;27;1011;-60
2021/12/11 11:37:42;;;;;;;;;;;;;;;;;;5131728;27;1372;-60
2021/12/11 11:40:10;;;;;;;;;;;;;;;;;;5114210;27;993;-60
2021/12/11 11:42:37;;;;;;;;;;;;;;;;;;5132349;27;1069;-60
2021/12/11 11:45:04;;;;;;;;;;;;;;;;;;5132717;27;913;-60
2021/12/11 11:47:30;;;;;;;;;;;;;;;;;;5113660;28;855;-60
2021/12/11 11:49:59;;;;;;;;;;;;;;;;;;5132472;28;792;-60
2021/12/11 11:52:25;;;;;;;;;;;;;;;;;;5132127;28;847;-60
2021/12/11 11:54:52;;;;;;;;;;;;;;;;;;5132158;28;808;-60
2021/12/11 11:57:19;;;;;;;;;;;;;;;;;;5132648;28;1910;-60
2021/12/11 11:59:45;;;;;;;;;;;;;;;;;;5132910;28;852;-60
2021/12/11 12:02:13;;;;;;;;;;;;;;;;;;5131936;28;1228;-60
2021/12/11 12:04:39;;;;;;;;;;;;;;;;;;5131620;28;1073;-60
2021/12/11 12:07:06;;;;;;;;;;;;;;;;;;5134373;27;1217;-60
2021/12/11 12:09:33;;;;;;;;;;;;;;;;;;5134589;27;1260;-60
2021/12/11 12:11:58;;;;;;;;;;;;;;;;;;5135885;27;832;-60
2021/12/11 12:14:26;;;;;;;;;;;;;;;;;;5135941;27;950;-60
2021/12/11 12:16:52;;;;;;;;;;;;;;;;;;5135786;27;1889;-60
2021/12/11 12:19:19;;;;;;;;;;;;;;;;;;5136522;27;957;-60
2021/12/11 12:21:46;;;;;;;;;;;;;;;;;;5117323;27;785;-60
2021/12/11 12:24:12;;;;;;;;;;;;;;;;;;5117285;27;970;-60
2021/12/11 12:26:38;;;;;;;;;;;;;;;;;;5135269;27;1852;-60
2021/12/11 12:29:05;;;;;;;;;;;;;;;;;;5136151;27;820;-60
2021/12/11 12:31:33;;;;;;;;;;;;;;;;;;5136016;27;911;-60
2021/12/11 12:33:59;;;;;;;;;;;;;;;;;;5134902;27;883;-60
2021/12/11 12:36:25;;;;;;;;;;;;;;;;;;5135037;27;1985;-60
2021/12/11 12:38:51;;;;;;;;;;;;;;;;;;5116576;27;1050;-60
2021/12/11 12:41:26;;;;;;;;;;;;;;;;;;5135068;27;799;-60
2021/12/11 12:46:35;;;;;;;;;;;;;;;;;;5135039;27;780;-60
2021/12/11 12:49:00;;;;;;;;;;;;;;;;;;5135356;27;919;-60
2021/12/11 12:51:26;;;;;;;;;;;;;;;;;;5134646;27;812;-60
2021/12/11 12:53:52;;;;;;;;;;;;;;;;;;5134772;27;895;-60
2021/12/11 12:56:24;;;;;;;;;;;;;;;;;;5134753;27;2051;-60
2021/12/11 12:58:49;;;;;;;;;;;;;;;;;;5135085;27;1161;-59
2021/12/11 13:01:20;;;;;;;;;;;;;;;;;;5135072;27;931;-59
2021/12/11 13:03:47;;;;;;;;;;;;;;;;;;5116570;27;1190;-59
2021/12/11 13:06:15;;;;;;;;;;;;;;;;;;5135179;27;990;-59
2021/12/11 13:08:47;;;;;;;;;;;;;;;;;;5135575;27;885;-60
2021/12/11 13:11:32;;;;;;;;;;;;;;;;;;5135007;27;856;-59
2021/12/11 13:13:58;;;;;;;;;;;;;;;;;;5134529;27;1189;-59
2021/12/11 13:16:25;;;;;;;;;;;;;;;;;;5134949;27;1905;-59
2021/12/11 13:19:02;;;;;;;;;;;;;;;;;;5134598;27;888;-59
2021/12/11 13:21:34;;;;;;;;;;;;;;;;;;5133994;27;939;-59
2021/12/11 13:24:00;;;;;;;;;;;;;;;;;;5135222;27;927;-59
2021/12/11 13:26:27;;;;;;;;;;;;;;;;;;5134594;27;867;-59
2021/12/11 13:28:55;;;;;;;;;;;;;;;;;;5134958;27;872;-59
2021/12/11 13:31:43;;;;;;;;;;;;;;;;;;5134503;27;1246;-59
2021/12/11 13:34:09;;;;;;;;;;;;;;;;;;5123436;27;1222;-59
2021/12/11 13:36:35;;;;;;;;;;;;;;;;;;5134496;27;1901;-58
2021/12/11 13:39:03;;;;;;;;;;;;;;;;;;5135036;27;797;-59
2021/12/11 13:41:37;;;;;;;;;;;;;;;;;;5134657;27;1603;-59
2021/12/11 13:44:03;;;;;;;;;;;;;;;;;;5135335;27;978;-59
2021/12/11 13:46:29;;;;;;;;;;;;;;;;;;5116217;27;892;-59
2021/12/11 13:48:54;;;;;;;;;;;;;;;;;;5134679;27;828;-59
2021/12/11 13:51:25;;;;;;;;;;;;;;;;;;5134850;27;855;-59
2021/12/11 13:53:51;;;;;;;;;;;;;;;;;;5134512;27;876;-60
2021/12/11 13:56:20;;;;;;;;;;;;;;;;;;5134645;27;1983;-58
2021/12/11 13:58:46;;;;;;;;;;;;;;;;;;5134760;27;828;-61
2021/12/11 14:01:18;;;;;;;;;;;;;;;;;;5134739;27;1050;-60
2021/12/11 14:03:44;;;;;;;;;;;;;;;;;;5116827;27;1630;-59
2021/12/11 14:06:12;;;;;;;;;;;;;;;;;;5134956;27;847;-60
2021/12/11 14:08:38;;;;;;;;;;;;;;;;;;5134029;27;832;-60
2021/12/11 14:11:05;;;;;;;;;;;;;;;;;;5134621;27;813;-61
2021/12/11 14:13:30;;;;;;;;;;;;;;;;;;5134427;27;903;-59
2021/12/11 14:15:56;;;;;;;;;;;;;;;;;;5134475;27;1889;-61
2021/12/11 14:18:22;;;;;;;;;;;;;;;;;;5134429;27;994;-60
2021/12/11 14:20:49;;;;;;;;;;;;;;;;;;5134358;27;859;-58
2021/12/11 14:23:17;;;;;;;;;;;;;;;;;;5133945;27;919;-60
2021/12/11 14:25:42;;;;;;;;;;;;;;;;;;5133678;27;908;-61
2021/12/11 14:28:10;;;;;;;;;;;;;;;;;;5134136;27;975;-58
2021/12/11 14:30:36;;;;;;;;;;;;;;;;;;5134027;27;824;-60
2021/12/11 14:33:02;;;;;;;;;;;;;;;;;;5133507;27;782;-60
2021/12/11 14:35:29;;;;;;;;;;;;;;;;;;5133503;27;1976;-58
2021/12/11 14:37:56;;;;;;;;;;;;;;;;;;5133357;27;1328;-61
2021/12/11 14:40:24;;;;;;;;;;;;;;;;;;5133361;27;923;-58
2021/12/11 14:42:49;;;;;;;;;;;;;;;;;;5133401;27;828;-58
2021/12/11 14:45:19;;;;;;;;;;;;;;;;;;5133421;27;1102;-58
2021/12/11 14:47:45;;;;;;;;;;;;;;;;;;5132963;27;883;-58
2021/12/11 14:50:11;;;;;;;;;;;;;;;;;;5133687;27;1007;-60
2021/12/11 14:52:36;;;;;;;;;;;;;;;;;;5133019;27;994;-60
2021/12/11 14:55:05;;;;;;;;;;;;;;;;;;5133026;27;978;-60
2021/12/11 14:57:30;;;;;;;;;;;;;;;;;;5132541;27;1910;-60
2021/12/11 14:59:58;;;;;;;;;;;;;;;;;;5114756;27;847;-60
2021/12/11 15:02:26;;;;;;;;;;;;;;;;;;5133036;27;824;-60
2021/12/11 15:04:53;;;;;;;;;;;;;;;;;;5132982;27;845;-60
2021/12/11 15:07:20;;;;;;;;;;;;;;;;;;5133300;27;828;-61
2021/12/11 15:09:45;;;;;;;;;;;;;;;;;;5131983;27;805;-61
2021/12/11 15:12:12;;;;;;;;;;;;;;;;;;5132633;27;1061;-61
2021/12/11 15:14:37;;;;;;;;;;;;;;;;;;5133028;27;903;-61
2021/12/11 15:17:05;;;;;;;;;;;;;;;;;;5133097;27;1967;-61
2021/12/11 15:19:30;;;;;;;;;;;;;;;;;;5132678;27;832;-61
2021/12/11 15:21:56;;;;;;;;;;;;;;;;;;5132655;27;969;-61
2021/12/11 15:24:21;;;;;;;;;;;;;;;;;;5133134;27;879;-61
2021/12/11 15:26:47;;;;;;;;;;;;;;;;;;5114342;27;844;-61
2021/12/11 15:29:14;;;;;;;;;;;;;;;;;;5133078;27;824;-61
2021/12/11 15:31:42;;;;;;;;;;;;;;;;;;5132829;27;891;-61
2021/12/11 15:34:09;;;;;;;;;;;;;;;;;;5133089;27;992;-61
2021/12/11 15:36:35;;;;;;;;;;;;;;;;;;5132554;27;1991;-61
2021/12/11 15:39:04;;;;;;;;;;;;;;;;;;5132565;27;958;-60
2021/12/11 15:41:30;;;;;;;;;;;;;;;;;;5132782;27;820;-60
2021/12/11 15:43:55;;;;;;;;;;;;;;;;;;5131980;27;839;-61
2021/12/11 15:46:22;;;;;;;;;;;;;;;;;;5132471;27;880;-60
2021/12/11 15:48:48;;;;;;;;;;;;;;;;;;5113892;28;862;-60
2021/12/11 15:51:14;;;;;;;;;;;;;;;;;;5114278;28;942;-60
2021/12/11 15:53:40;;;;;;;;;;;;;;;;;;5132150;28;816;-60
2021/12/11 15:56:08;;;;;;;;;;;;;;;;;;5132418;28;1909;-60
2021/12/11 15:58:34;;;;;;;;;;;;;;;;;;5113539;28;1639;-60
2021/12/11 16:01:04;;;;;;;;;;;;;;;;;;5132321;28;824;-60
2021/12/11 16:03:30;;;;;;;;;;;;;;;;;;5132175;28;777;-60
2021/12/11 16:06:02;;;;;;;;;;;;;;;;;;5132267;28;966;-60
2021/12/11 16:08:28;;;;;;;;;;;;;;;;;;5131627;27;1221;-60
2021/12/11 16:10:53;;;;;;;;;;;;;;;;;;5128470;27;1214;-60
2021/12/11 16:13:19;;;;;;;;;;;;;;;;;;5134101;27;872;-60
2021/12/11 16:15:46;;;;;;;;;;;;;;;;;;5152338;27;1948;-61
2021/12/11 16:18:11;;;;;;;;;;;;;;;;;;5153094;27;828;-61
2021/12/11 16:20:44;;;;;;;;;;;;;;;;;;5152755;27;824;-61
2021/12/11 16:23:10;;;;;;;;;;;;;;;;;;5153370;27;844;-60
2021/12/11 16:25:35;;;;;;;;;;;;;;;;;;5152129;27;761;-61
2021/12/11 16:28:03;;;;;;;;;;;;;;;;;;5151894;27;958;-61
2021/12/11 16:30:30;;;;;;;;;;;;;;;;;;5151849;27;828;-60
2021/12/11 16:32:56;;;;;;;;;;;;;;;;;;5151942;27;904;-60
2021/12/11 16:35:22;;;;;;;;;;;;;;;;;;5152270;27;863;-60
2021/12/11 16:37:48;;;;;;;;;;;;;;;;;;5151596;27;1909;-60
2021/12/11 16:40:16;;;;;;;;;;;;;;;;;;5148876;27;1776;-60
2021/12/11 16:42:46;;;;;;;;;;;;;;;;;;5131226;28;934;-60
2021/12/11 16:45:14;;;;;;;;;;;;;;;;;;5131860;28;801;-60
2021/12/11 16:47:40;;;;;;;;;;;;;;;;;;5131137;28;820;-60
2021/12/11 16:50:07;;;;;;;;;;;;;;;;;;5131263;28;849;-60
2021/12/11 16:52:32;;;;;;;;;;;;;;;;;;5131245;28;611;-60
2021/12/11 16:54:57;;;;;;;;;;;;;;;;;;5131287;27;873;-60
2021/12/11 16:57:22;;;;;;;;;;;;;;;;;;5135859;27;1918;-60
2021/12/11 16:59:48;;;;;;;;;;;;;;;;;;5135191;27;841;-60
2021/12/11 17:02:19;;;;;;;;;;;;;;;;;;5116823;27;824;-60
2021/12/11 17:04:45;;;;;;;;;;;;;;;;;;5117683;27;832;-61
2021/12/11 17:07:11;;;;;;;;;;;;;;;;;;5135270;27;1127;-59
2021/12/11 17:09:40;;;;;;;;;;;;;;;;;;5116546;27;942;-59
2021/12/11 17:12:07;;;;;;;;;;;;;;;;;;5134860;27;824;-59
2021/12/11 17:14:32;;;;;;;;;;;;;;;;;;5134831;27;899;-59
2021/12/11 17:16:58;;;;;;;;;;;;;;;;;;5134715;27;1910;-59
2021/12/11 17:19:24;;;;;;;;;;;;;;;;;;5135056;27;1073;-59
2021/12/11 17:21:49;;;;;;;;;;;;;;;;;;5134170;27;899;-60
2021/12/11 17:24:16;;;;;;;;;;;;;;;;;;5134850;27;895;-60
2021/12/11 17:26:42;;;;;;;;;;;;;;;;;;5134446;27;1000;-59
2021/12/11 17:29:09;;;;;;;;;;;;;;;;;;5134800;27;899;-60
2021/12/11 17:31:35;;;;;;;;;;;;;;;;;;5134572;27;1069;-60
2021/12/11 17:34:00;;;;;;;;;;;;;;;;;;5134505;27;1053;-60
2021/12/11 17:36:25;;;;;;;;;;;;;;;;;;5134043;27;1905;-60
2021/12/11 17:38:52;;;;;;;;;;;;;;;;;;5133908;27;863;-60